Portada
METAR-TAF:

METAR-TAF

Aeroports :

Aeroport Internacional de Bahrain

Bahrain, Bahrain

latitud: 26-16N, longitud: 050-39E, altitud: 2 m

Observació

L'informe es va fer fa 25 minuts, a les 03:30 UTC
Vent 3 kt del Oest/Nord-Oest, variant entre Oest i Nord/Nord-Oest
Temperatura 30°C
Humitat 79%
Pressió 1007 hPa
Visibilitat 10 km o més
Escasses núvols a una alçada de 3000 ft

METAR: OBBI 250330Z 29003KT 260V330 9999 FEW030 30/26 Q1007 NOSIG

Hora: 06:55 (03:55 UTC)

Pronòstic

L'informe es va fer fa 4 hores i 55 minuts, a les 23:00 UTC
Pronòstic vàlid del 25 a les 00 UTC al 26 a les 06 UTC
Vent 8 kt del Nord
Visibilitat: 9000 m
Probabilitat 30% :
Temporalment
l' 25 a les 22 UTC al 26 a les 03 UTC
Visibilitat: 4500 m
calitja
Evolucionant progressivament
l' 25 a les 23 UTC al 26 a les 02 UTC
Vent 16 kt del Nord/Nord-Oest

TAF: OBBI 242300Z 2500/2606 36008KT 9000 NSC PROB30 TEMPO 2522/2603 4500 HZ BECMG 2523/2602 34016KT

Observacions i pronòstics meteorològics de més de 4000 aeroports (METAR i TAF).

Les estacions disponibles són els punts grocs i vermells al mapa.

Posi el ratolí al punt desitjat per veure el nom de l'estació.

Feu clic per veure les observacions i els pronòstics meteorològics.

Per canviar el mapa: feu clic els botons verds amb una creu de color negre per apropar; al botó verd amb un guió per allunyar la imatge; o en les fletxes verdes per a mapes adjacents.


METAR-TAF: